sensor_id;sensor_type;location;lat;lon;timestamp;P1;durP1;ratioP1;P2;durP2;ratioP2
61635;SDS011;59438;45.014;39.006;2022-12-07T00:00:13;10.02;;;5.45;;
61635;SDS011;59438;45.014;39.006;2022-12-07T00:02:40;6.25;;;4.35;;
61635;SDS011;59438;45.014;39.006;2022-12-07T00:05:06;8.20;;;4.90;;
61635;SDS011;59438;45.014;39.006;2022-12-07T00:07:33;7.28;;;4.68;;
61635;SDS011;59438;45.014;39.006;2022-12-07T00:09:59;6.40;;;4.00;;
61635;SDS011;59438;45.014;39.006;2022-12-07T00:12:27;9.60;;;4.93;;
61635;SDS011;59438;45.014;39.006;2022-12-07T00:14:54;7.53;;;4.18;;
61635;SDS011;59438;45.014;39.006;2022-12-07T00:17:20;6.13;;;4.35;;
61635;SDS011;59438;45.014;39.006;2022-12-07T00:19:46;5.82;;;3.80;;
61635;SDS011;59438;45.014;39.006;2022-12-07T00:22:13;5.75;;;3.85;;
61635;SDS011;59438;45.014;39.006;2022-12-07T00:24:39;8.30;;;4.60;;
61635;SDS011;59438;45.014;39.006;2022-12-07T00:27:06;7.68;;;4.35;;
61635;SDS011;59438;45.014;39.006;2022-12-07T00:29:33;8.00;;;4.70;;
61635;SDS011;59438;45.014;39.006;2022-12-07T00:32:00;7.65;;;5.00;;
61635;SDS011;59438;45.014;39.006;2022-12-07T00:34:26;7.32;;;4.78;;
61635;SDS011;59438;45.014;39.006;2022-12-07T00:36:52;8.93;;;4.75;;
61635;SDS011;59438;45.014;39.006;2022-12-07T00:39:19;7.93;;;4.40;;
61635;SDS011;59438;45.014;39.006;2022-12-07T00:41:45;7.57;;;4.40;;
61635;SDS011;59438;45.014;39.006;2022-12-07T00:44:12;10.88;;;4.40;;
61635;SDS011;59438;45.014;39.006;2022-12-07T00:46:39;7.25;;;4.47;;
61635;SDS011;59438;45.014;39.006;2022-12-07T00:49:06;5.10;;;3.95;;
61635;SDS011;59438;45.014;39.006;2022-12-07T00:51:32;6.50;;;4.22;;
61635;SDS011;59438;45.014;39.006;2022-12-07T00:53:59;4.82;;;3.13;;
61635;SDS011;59438;45.014;39.006;2022-12-07T00:56:26;7.30;;;5.00;;
61635;SDS011;59438;45.014;39.006;2022-12-07T00:58:54;7.70;;;4.35;;
61635;SDS011;59438;45.014;39.006;2022-12-07T01:01:21;6.00;;;4.07;;
61635;SDS011;59438;45.014;39.006;2022-12-07T01:03:49;7.90;;;4.68;;
61635;SDS011;59438;45.014;39.006;2022-12-07T01:06:16;8.60;;;4.47;;
61635;SDS011;59438;45.014;39.006;2022-12-07T01:08:44;7.05;;;4.55;;
61635;SDS011;59438;45.014;39.006;2022-12-07T01:11:13;7.35;;;4.35;;
61635;SDS011;59438;45.014;39.006;2022-12-07T01:13:40;8.13;;;4.75;;
61635;SDS011;59438;45.014;39.006;2022-12-07T01:16:07;4.88;;;3.22;;
61635;SDS011;59438;45.014;39.006;2022-12-07T01:18:35;7.70;;;5.28;;
61635;SDS011;59438;45.014;39.006;2022-12-07T01:21:04;6.85;;;4.45;;
61635;SDS011;59438;45.014;39.006;2022-12-07T01:23:33;6.53;;;4.53;;
61635;SDS011;59438;45.014;39.006;2022-12-07T01:26:00;7.82;;;4.90;;
61635;SDS011;59438;45.014;39.006;2022-12-07T01:28:28;10.23;;;4.85;;
61635;SDS011;59438;45.014;39.006;2022-12-07T01:30:56;7.80;;;4.80;;
61635;SDS011;59438;45.014;39.006;2022-12-07T01:33:23;9.10;;;5.18;;
61635;SDS011;59438;45.014;39.006;2022-12-07T01:35:51;8.13;;;4.55;;
61635;SDS011;59438;45.014;39.006;2022-12-07T01:38:19;6.25;;;4.40;;
61635;SDS011;59438;45.014;39.006;2022-12-07T01:40:50;8.35;;;4.50;;
61635;SDS011;59438;45.014;39.006;2022-12-07T01:43:20;8.18;;;4.95;;
61635;SDS011;59438;45.014;39.006;2022-12-07T01:45:48;10.52;;;4.45;;
61635;SDS011;59438;45.014;39.006;2022-12-07T01:48:14;6.80;;;4.43;;
61635;SDS011;59438;45.014;39.006;2022-12-07T01:50:45;9.13;;;4.87;;
61635;SDS011;59438;45.014;39.006;2022-12-07T01:53:14;7.75;;;4.43;;
61635;SDS011;59438;45.014;39.006;2022-12-07T01:55:44;7.00;;;4.18;;
61635;SDS011;59438;45.014;39.006;2022-12-07T01:58:15;6.53;;;4.22;;
61635;SDS011;59438;45.014;39.006;2022-12-07T02:00:42;6.88;;;3.65;;
61635;SDS011;59438;45.014;39.006;2022-12-07T02:03:09;8.43;;;4.57;;
61635;SDS011;59438;45.014;39.006;2022-12-07T02:05:40;6.28;;;4.15;;
61635;SDS011;59438;45.014;39.006;2022-12-07T02:08:09;8.13;;;4.88;;
61635;SDS011;59438;45.014;39.006;2022-12-07T02:10:36;6.30;;;4.10;;
61635;SDS011;59438;45.014;39.006;2022-12-07T02:13:05;9.55;;;4.50;;
61635;SDS011;59438;45.014;39.006;2022-12-07T02:15:39;8.57;;;4.55;;
61635;SDS011;59438;45.014;39.006;2022-12-07T02:18:14;8.50;;;5.03;;
61635;SDS011;59438;45.014;39.006;2022-12-07T02:20:47;9.07;;;4.15;;
61635;SDS011;59438;45.014;39.006;2022-12-07T02:26:18;5.03;;;3.72;;
61635;SDS011;59438;45.014;39.006;2022-12-07T02:31:46;6.97;;;4.13;;
61635;SDS011;59438;45.014;39.006;2022-12-07T02:34:21;7.45;;;4.90;;
61635;SDS011;59438;45.014;39.006;2022-12-07T02:36:55;7.63;;;4.07;;
61635;SDS011;59438;45.014;39.006;2022-12-07T02:39:28;10.57;;;4.28;;
61635;SDS011;59438;45.014;39.006;2022-12-07T02:42:00;7.18;;;4.00;;
61635;SDS011;59438;45.014;39.006;2022-12-07T02:44:36;5.60;;;3.50;;
61635;SDS011;59438;45.014;39.006;2022-12-07T02:47:04;6.78;;;4.25;;
61635;SDS011;59438;45.014;39.006;2022-12-07T02:49:35;10.65;;;4.60;;
61635;SDS011;59438;45.014;39.006;2022-12-07T02:52:03;6.68;;;4.13;;
61635;SDS011;59438;45.014;39.006;2022-12-07T02:54:30;7.57;;;4.43;;
61635;SDS011;59438;45.014;39.006;2022-12-07T02:56:57;10.07;;;4.53;;
61635;SDS011;59438;45.014;39.006;2022-12-07T02:59:35;6.95;;;4.55;;
61635;SDS011;59438;45.014;39.006;2022-12-07T03:02:17;6.82;;;3.75;;
61635;SDS011;59438;45.014;39.006;2022-12-07T03:04:52;6.85;;;4.25;;
61635;SDS011;59438;45.014;39.006;2022-12-07T03:07:26;5.40;;;3.60;;
61635;SDS011;59438;45.014;39.006;2022-12-07T03:09:59;8.52;;;4.57;;
61635;SDS011;59438;45.014;39.006;2022-12-07T03:12:35;8.63;;;4.35;;
61635;SDS011;59438;45.014;39.006;2022-12-07T03:15:12;6.55;;;4.43;;
61635;SDS011;59438;45.014;39.006;2022-12-07T03:17:44;5.85;;;3.92;;
61635;SDS011;59438;45.014;39.006;2022-12-07T03:20:15;7.35;;;3.92;;
61635;SDS011;59438;45.014;39.006;2022-12-07T03:22:46;7.13;;;3.63;;
61635;SDS011;59438;45.014;39.006;2022-12-07T03:25:13;7.63;;;4.28;;
61635;SDS011;59438;45.014;39.006;2022-12-07T03:27:43;9.63;;;4.53;;
61635;SDS011;59438;45.014;39.006;2022-12-07T03:30:14;7.22;;;4.53;;
61635;SDS011;59438;45.014;39.006;2022-12-07T03:32:45;8.45;;;4.65;;
61635;SDS011;59438;45.014;39.006;2022-12-07T03:35:17;10.05;;;4.35;;
61635;SDS011;59438;45.014;39.006;2022-12-07T03:37:48;6.45;;;4.25;;
61635;SDS011;59438;45.014;39.006;2022-12-07T03:40:19;5.40;;;3.58;;
61635;SDS011;59438;45.014;39.006;2022-12-07T03:42:50;6.35;;;4.47;;
61635;SDS011;59438;45.014;39.006;2022-12-07T03:45:20;10.43;;;5.13;;
61635;SDS011;59438;45.014;39.006;2022-12-07T03:47:54;7.57;;;4.10;;
61635;SDS011;59438;45.014;39.006;2022-12-07T03:50:30;9.40;;;4.88;;
61635;SDS011;59438;45.014;39.006;2022-12-07T03:53:03;7.60;;;3.83;;
61635;SDS011;59438;45.014;39.006;2022-12-07T03:55:34;13.23;;;5.25;;
61635;SDS011;59438;45.014;39.006;2022-12-07T03:58:06;6.60;;;4.15;;
61635;SDS011;59438;45.014;39.006;2022-12-07T04:00:38;7.25;;;4.10;;
61635;SDS011;59438;45.014;39.006;2022-12-07T04:03:06;12.63;;;4.45;;
61635;SDS011;59438;45.014;39.006;2022-12-07T04:05:32;11.60;;;5.18;;
61635;SDS011;59438;45.014;39.006;2022-12-07T04:07:59;8.70;;;4.38;;
61635;SDS011;59438;45.014;39.006;2022-12-07T04:10:25;9.00;;;4.35;;
61635;SDS011;59438;45.014;39.006;2022-12-07T04:12:51;7.85;;;4.90;;
61635;SDS011;59438;45.014;39.006;2022-12-07T04:15:18;8.55;;;4.97;;
61635;SDS011;59438;45.014;39.006;2022-12-07T04:17:46;8.48;;;4.40;;
61635;SDS011;59438;45.014;39.006;2022-12-07T04:20:12;9.07;;;3.83;;
61635;SDS011;59438;45.014;39.006;2022-12-07T04:22:42;7.43;;;4.53;;
61635;SDS011;59438;45.014;39.006;2022-12-07T04:25:08;7.90;;;4.63;;
61635;SDS011;59438;45.014;39.006;2022-12-07T04:27:35;5.13;;;2.92;;
61635;SDS011;59438;45.014;39.006;2022-12-07T04:30:01;7.72;;;4.07;;
61635;SDS011;59438;45.014;39.006;2022-12-07T04:32:28;9.30;;;4.05;;
61635;SDS011;59438;45.014;39.006;2022-12-07T04:34:56;10.43;;;4.15;;
61635;SDS011;59438;45.014;39.006;2022-12-07T04:37:22;8.95;;;4.63;;
61635;SDS011;59438;45.014;39.006;2022-12-07T04:39:49;9.88;;;4.38;;
61635;SDS011;59438;45.014;39.006;2022-12-07T04:42:16;7.28;;;4.47;;
61635;SDS011;59438;45.014;39.006;2022-12-07T04:44:42;7.20;;;5.10;;
61635;SDS011;59438;45.014;39.006;2022-12-07T04:47:09;9.77;;;5.22;;
61635;SDS011;59438;45.014;39.006;2022-12-07T04:49:35;9.93;;;5.20;;
61635;SDS011;59438;45.014;39.006;2022-12-07T04:52:03;9.65;;;5.07;;
61635;SDS011;59438;45.014;39.006;2022-12-07T04:54:30;8.85;;;4.82;;
61635;SDS011;59438;45.014;39.006;2022-12-07T04:56:56;11.30;;;4.82;;
61635;SDS011;59438;45.014;39.006;2022-12-07T04:59:22;9.60;;;4.40;;
61635;SDS011;59438;45.014;39.006;2022-12-07T05:01:49;12.70;;;5.25;;
61635;SDS011;59438;45.014;39.006;2022-12-07T05:04:15;10.43;;;5.13;;
61635;SDS011;59438;45.014;39.006;2022-12-07T05:06:42;8.85;;;4.72;;
61635;SDS011;59438;45.014;39.006;2022-12-07T05:09:10;9.50;;;4.95;;
61635;SDS011;59438;45.014;39.006;2022-12-07T05:11:36;8.35;;;5.13;;
61635;SDS011;59438;45.014;39.006;2022-12-07T05:14:03;11.63;;;5.50;;
61635;SDS011;59438;45.014;39.006;2022-12-07T05:16:31;6.30;;;4.20;;
61635;SDS011;59438;45.014;39.006;2022-12-07T05:18:57;7.63;;;4.35;;
61635;SDS011;59438;45.014;39.006;2022-12-07T05:21:24;10.10;;;4.55;;
61635;SDS011;59438;45.014;39.006;2022-12-07T05:23:50;9.48;;;5.30;;
61635;SDS011;59438;45.014;39.006;2022-12-07T05:26:18;11.35;;;4.35;;
61635;SDS011;59438;45.014;39.006;2022-12-07T05:28:45;13.40;;;5.32;;
61635;SDS011;59438;45.014;39.006;2022-12-07T05:31:15;11.95;;;5.20;;
61635;SDS011;59438;45.014;39.006;2022-12-07T05:33:41;7.97;;;4.65;;
61635;SDS011;59438;45.014;39.006;2022-12-07T05:36:08;9.75;;;5.05;;
61635;SDS011;59438;45.014;39.006;2022-12-07T05:38:34;9.90;;;5.18;;
61635;SDS011;59438;45.014;39.006;2022-12-07T05:41:01;10.68;;;5.25;;
61635;SDS011;59438;45.014;39.006;2022-12-07T05:43:29;8.38;;;3.83;;
61635;SDS011;59438;45.014;39.006;2022-12-07T05:45:56;13.40;;;5.18;;
61635;SDS011;59438;45.014;39.006;2022-12-07T05:48:23;10.95;;;5.57;;
61635;SDS011;59438;45.014;39.006;2022-12-07T05:50:50;7.00;;;4.55;;
61635;SDS011;59438;45.014;39.006;2022-12-07T05:53:17;10.77;;;5.35;;
61635;SDS011;59438;45.014;39.006;2022-12-07T05:55:44;8.32;;;4.97;;
61635;SDS011;59438;45.014;39.006;2022-12-07T05:58:10;11.90;;;5.82;;
61635;SDS011;59438;45.014;39.006;2022-12-07T06:00:38;9.70;;;5.70;;
61635;SDS011;59438;45.014;39.006;2022-12-07T06:03:04;9.55;;;5.10;;
61635;SDS011;59438;45.014;39.006;2022-12-07T06:05:31;13.63;;;5.65;;
61635;SDS011;59438;45.014;39.006;2022-12-07T06:07:57;10.73;;;5.22;;
61635;SDS011;59438;45.014;39.006;2022-12-07T06:10:24;8.95;;;5.30;;
61635;SDS011;59438;45.014;39.006;2022-12-07T06:12:50;11.07;;;5.30;;
61635;SDS011;59438;45.014;39.006;2022-12-07T06:15:16;15.00;;;5.63;;
61635;SDS011;59438;45.014;39.006;2022-12-07T06:17:44;12.02;;;5.60;;
61635;SDS011;59438;45.014;39.006;2022-12-07T06:20:11;12.40;;;5.80;;
61635;SDS011;59438;45.014;39.006;2022-12-07T06:22:37;11.30;;;5.82;;
61635;SDS011;59438;45.014;39.006;2022-12-07T06:25:04;10.48;;;5.43;;
61635;SDS011;59438;45.014;39.006;2022-12-07T06:27:30;9.25;;;5.20;;
61635;SDS011;59438;45.014;39.006;2022-12-07T06:29:57;8.23;;;5.55;;
61635;SDS011;59438;45.014;39.006;2022-12-07T06:32:23;10.80;;;5.75;;
61635;SDS011;59438;45.014;39.006;2022-12-07T06:34:51;13.45;;;5.45;;
61635;SDS011;59438;45.014;39.006;2022-12-07T06:37:18;11.48;;;6.00;;
61635;SDS011;59438;45.014;39.006;2022-12-07T06:39:44;21.05;;;7.10;;
61635;SDS011;59438;45.014;39.006;2022-12-07T06:42:11;17.55;;;8.00;;
61635;SDS011;59438;45.014;39.006;2022-12-07T06:44:37;21.80;;;8.18;;
61635;SDS011;59438;45.014;39.006;2022-12-07T06:47:03;11.48;;;5.97;;
61635;SDS011;59438;45.014;39.006;2022-12-07T06:49:30;10.05;;;5.43;;
61635;SDS011;59438;45.014;39.006;2022-12-07T06:51:58;9.05;;;4.50;;
61635;SDS011;59438;45.014;39.006;2022-12-07T06:54:25;9.73;;;5.10;;
61635;SDS011;59438;45.014;39.006;2022-12-07T06:56:51;13.00;;;6.72;;
61635;SDS011;59438;45.014;39.006;2022-12-07T06:59:17;11.23;;;5.90;;
61635;SDS011;59438;45.014;39.006;2022-12-07T07:01:44;12.30;;;6.13;;
61635;SDS011;59438;45.014;39.006;2022-12-07T07:04:10;10.65;;;5.78;;
61635;SDS011;59438;45.014;39.006;2022-12-07T07:06:37;11.82;;;6.25;;
61635;SDS011;59438;45.014;39.006;2022-12-07T07:09:04;15.95;;;6.97;;
61635;SDS011;59438;45.014;39.006;2022-12-07T07:11:31;12.55;;;6.82;;
61635;SDS011;59438;45.014;39.006;2022-12-07T07:13:57;8.65;;;5.32;;
61635;SDS011;59438;45.014;39.006;2022-12-07T07:16:24;14.52;;;5.72;;
61635;SDS011;59438;45.014;39.006;2022-12-07T07:18:50;9.88;;;5.78;;
61635;SDS011;59438;45.014;39.006;2022-12-07T07:21:17;13.30;;;6.65;;
61635;SDS011;59438;45.014;39.006;2022-12-07T07:23:43;13.02;;;6.32;;
61635;SDS011;59438;45.014;39.006;2022-12-07T07:26:11;16.48;;;7.53;;
61635;SDS011;59438;45.014;39.006;2022-12-07T07:28:37;13.38;;;7.25;;
61635;SDS011;59438;45.014;39.006;2022-12-07T07:31:04;15.00;;;6.93;;
61635;SDS011;59438;45.014;39.006;2022-12-07T07:33:30;12.98;;;7.68;;
61635;SDS011;59438;45.014;39.006;2022-12-07T07:35:57;13.80;;;7.38;;
61635;SDS011;59438;45.014;39.006;2022-12-07T07:38:23;15.43;;;6.97;;
61635;SDS011;59438;45.014;39.006;2022-12-07T07:40:49;15.38;;;7.57;;
61635;SDS011;59438;45.014;39.006;2022-12-07T07:43:17;10.20;;;5.90;;
61635;SDS011;59438;45.014;39.006;2022-12-07T07:45:44;14.82;;;7.35;;
61635;SDS011;59438;45.014;39.006;2022-12-07T07:48:10;15.05;;;8.18;;
61635;SDS011;59438;45.014;39.006;2022-12-07T07:50:37;19.90;;;8.57;;
61635;SDS011;59438;45.014;39.006;2022-12-07T07:53:03;12.25;;;6.82;;
61635;SDS011;59438;45.014;39.006;2022-12-07T07:55:29;16.90;;;8.45;;
61635;SDS011;59438;45.014;39.006;2022-12-07T07:57:56;11.32;;;6.20;;
61635;SDS011;59438;45.014;39.006;2022-12-07T08:00:24;13.65;;;7.38;;
61635;SDS011;59438;45.014;39.006;2022-12-07T08:02:50;11.52;;;6.72;;
61635;SDS011;59438;45.014;39.006;2022-12-07T08:05:17;15.02;;;5.93;;
61635;SDS011;59438;45.014;39.006;2022-12-07T08:07:43;14.52;;;6.45;;
61635;SDS011;59438;45.014;39.006;2022-12-07T08:10:10;14.02;;;6.65;;
61635;SDS011;59438;45.014;39.006;2022-12-07T08:12:38;13.18;;;6.65;;
61635;SDS011;59438;45.014;39.006;2022-12-07T08:15:06;12.52;;;7.43;;
61635;SDS011;59438;45.014;39.006;2022-12-07T08:17:34;11.80;;;7.07;;
61635;SDS011;59438;45.014;39.006;2022-12-07T08:20:01;11.52;;;6.60;;
61635;SDS011;59438;45.014;39.006;2022-12-07T08:22:27;10.15;;;6.40;;
61635;SDS011;59438;45.014;39.006;2022-12-07T08:24:54;13.05;;;6.82;;
61635;SDS011;59438;45.014;39.006;2022-12-07T08:27:20;8.38;;;5.13;;
61635;SDS011;59438;45.014;39.006;2022-12-07T08:29:46;11.90;;;6.85;;
61635;SDS011;59438;45.014;39.006;2022-12-07T08:32:13;13.38;;;6.75;;
61635;SDS011;59438;45.014;39.006;2022-12-07T08:34:41;15.18;;;6.95;;
61635;SDS011;59438;45.014;39.006;2022-12-07T08:37:07;14.43;;;7.68;;
61635;SDS011;59438;45.014;39.006;2022-12-07T08:39:33;10.93;;;6.68;;
61635;SDS011;59438;45.014;39.006;2022-12-07T08:42:00;8.15;;;4.95;;
61635;SDS011;59438;45.014;39.006;2022-12-07T08:44:26;15.32;;;7.53;;
61635;SDS011;59438;45.014;39.006;2022-12-07T08:46:53;14.38;;;6.75;;
61635;SDS011;59438;45.014;39.006;2022-12-07T08:49:24;15.15;;;7.25;;
61635;SDS011;59438;45.014;39.006;2022-12-07T08:51:58;16.23;;;8.35;;
61635;SDS011;59438;45.014;39.006;2022-12-07T08:54:24;13.75;;;6.95;;
61635;SDS011;59438;45.014;39.006;2022-12-07T08:56:50;17.38;;;7.72;;
61635;SDS011;59438;45.014;39.006;2022-12-07T08:59:18;17.38;;;7.43;;
61635;SDS011;59438;45.014;39.006;2022-12-07T09:01:46;13.98;;;7.55;;
61635;SDS011;59438;45.014;39.006;2022-12-07T09:04:12;14.32;;;7.13;;
61635;SDS011;59438;45.014;39.006;2022-12-07T09:06:39;16.38;;;8.02;;
61635;SDS011;59438;45.014;39.006;2022-12-07T09:09:07;11.40;;;7.53;;
61635;SDS011;59438;45.014;39.006;2022-12-07T09:11:35;18.48;;;6.88;;
61635;SDS011;59438;45.014;39.006;2022-12-07T09:14:02;13.65;;;7.20;;
61635;SDS011;59438;45.014;39.006;2022-12-07T09:16:28;13.23;;;7.30;;
61635;SDS011;59438;45.014;39.006;2022-12-07T09:18:55;18.05;;;7.68;;
61635;SDS011;59438;45.014;39.006;2022-12-07T09:21:21;13.70;;;8.02;;
61635;SDS011;59438;45.014;39.006;2022-12-07T09:23:48;11.45;;;6.38;;
61635;SDS011;59438;45.014;39.006;2022-12-07T09:26:16;17.80;;;9.60;;
61635;SDS011;59438;45.014;39.006;2022-12-07T09:28:42;20.13;;;11.43;;
61635;SDS011;59438;45.014;39.006;2022-12-07T09:31:08;18.20;;;8.73;;
61635;SDS011;59438;45.014;39.006;2022-12-07T09:33:35;22.58;;;13.27;;
61635;SDS011;59438;45.014;39.006;2022-12-07T09:36:02;27.52;;;14.93;;
61635;SDS011;59438;45.014;39.006;2022-12-07T09:38:29;14.75;;;7.82;;
61635;SDS011;59438;45.014;39.006;2022-12-07T09:40:56;18.63;;;9.90;;
61635;SDS011;59438;45.014;39.006;2022-12-07T09:43:24;12.90;;;7.63;;
61635;SDS011;59438;45.014;39.006;2022-12-07T09:45:52;18.10;;;8.45;;
61635;SDS011;59438;45.014;39.006;2022-12-07T09:48:20;22.65;;;14.07;;
61635;SDS011;59438;45.014;39.006;2022-12-07T09:50:57;14.30;;;7.57;;
61635;SDS011;59438;45.014;39.006;2022-12-07T09:53:26;15.55;;;8.15;;
61635;SDS011;59438;45.014;39.006;2022-12-07T09:55:56;16.63;;;8.27;;
61635;SDS011;59438;45.014;39.006;2022-12-07T09:58:25;19.95;;;12.40;;
61635;SDS011;59438;45.014;39.006;2022-12-07T10:00:54;13.00;;;7.18;;
61635;SDS011;59438;45.014;39.006;2022-12-07T10:03:23;15.73;;;9.35;;
61635;SDS011;59438;45.014;39.006;2022-12-07T10:05:50;18.63;;;9.23;;
61635;SDS011;59438;45.014;39.006;2022-12-07T10:08:18;22.13;;;10.63;;
61635;SDS011;59438;45.014;39.006;2022-12-07T10:10:45;17.67;;;8.57;;
61635;SDS011;59438;45.014;39.006;2022-12-07T10:13:15;13.18;;;6.72;;
61635;SDS011;59438;45.014;39.006;2022-12-07T10:15:48;18.13;;;8.73;;
61635;SDS011;59438;45.014;39.006;2022-12-07T10:18:20;16.23;;;8.73;;
61635;SDS011;59438;45.014;39.006;2022-12-07T10:21:04;19.45;;;7.75;;
61635;SDS011;59438;45.014;39.006;2022-12-07T10:23:37;16.08;;;7.55;;
61635;SDS011;59438;45.014;39.006;2022-12-07T10:26:21;17.10;;;8.07;;
61635;SDS011;59438;45.014;39.006;2022-12-07T10:28:54;16.15;;;7.35;;
61635;SDS011;59438;45.014;39.006;2022-12-07T10:31:25;16.27;;;8.38;;
61635;SDS011;59438;45.014;39.006;2022-12-07T10:33:52;11.23;;;7.05;;
61635;SDS011;59438;45.014;39.006;2022-12-07T10:36:21;14.45;;;7.75;;
61635;SDS011;59438;45.014;39.006;2022-12-07T10:38:50;19.65;;;8.20;;
61635;SDS011;59438;45.014;39.006;2022-12-07T10:41:18;17.42;;;7.82;;
61635;SDS011;59438;45.014;39.006;2022-12-07T10:43:48;19.08;;;7.85;;
61635;SDS011;59438;45.014;39.006;2022-12-07T10:49:32;14.02;;;6.97;;
61635;SDS011;59438;45.014;39.006;2022-12-07T10:52:20;14.40;;;8.18;;
61635;SDS011;59438;45.014;39.006;2022-12-07T10:55:05;18.95;;;8.02;;
61635;SDS011;59438;45.014;39.006;2022-12-07T10:57:44;29.48;;;16.35;;
61635;SDS011;59438;45.014;39.006;2022-12-07T11:05:52;15.20;;;7.97;;
61635;SDS011;59438;45.014;39.006;2022-12-07T11:08:31;18.60;;;8.18;;
61635;SDS011;59438;45.014;39.006;2022-12-07T11:11:08;16.00;;;7.82;;
61635;SDS011;59438;45.014;39.006;2022-12-07T11:13:41;13.50;;;8.30;;
61635;SDS011;59438;45.014;39.006;2022-12-07T11:16:16;15.48;;;7.55;;
61635;SDS011;59438;45.014;39.006;2022-12-07T11:18:52;16.58;;;8.32;;
61635;SDS011;59438;45.014;39.006;2022-12-07T11:21:33;17.55;;;9.40;;
61635;SDS011;59438;45.014;39.006;2022-12-07T11:24:09;21.92;;;7.78;;
61635;SDS011;59438;45.014;39.006;2022-12-07T11:26:50;18.23;;;7.60;;
61635;SDS011;59438;45.014;39.006;2022-12-07T11:29:33;14.57;;;7.25;;
61635;SDS011;59438;45.014;39.006;2022-12-07T11:32:14;15.55;;;7.28;;
61635;SDS011;59438;45.014;39.006;2022-12-07T11:34:48;15.77;;;7.72;;
61635;SDS011;59438;45.014;39.006;2022-12-07T11:37:27;18.42;;;8.48;;
61635;SDS011;59438;45.014;39.006;2022-12-07T11:39:59;20.83;;;13.45;;
61635;SDS011;59438;45.014;39.006;2022-12-07T11:42:29;16.58;;;7.45;;
61635;SDS011;59438;45.014;39.006;2022-12-07T11:45:03;16.65;;;7.18;;
61635;SDS011;59438;45.014;39.006;2022-12-07T11:47:40;12.55;;;6.68;;
61635;SDS011;59438;45.014;39.006;2022-12-07T11:50:16;11.98;;;7.00;;
61635;SDS011;59438;45.014;39.006;2022-12-07T11:52:54;12.90;;;7.40;;
61635;SDS011;59438;45.014;39.006;2022-12-07T11:55:27;13.73;;;7.95;;
61635;SDS011;59438;45.014;39.006;2022-12-07T11:58:00;14.95;;;7.07;;
61635;SDS011;59438;45.014;39.006;2022-12-07T12:00:30;13.93;;;7.88;;
61635;SDS011;59438;45.014;39.006;2022-12-07T12:03:19;13.82;;;6.82;;
61635;SDS011;59438;45.014;39.006;2022-12-07T12:05:57;19.00;;;7.55;;
61635;SDS011;59438;45.014;39.006;2022-12-07T12:08:26;17.73;;;7.40;;
61635;SDS011;59438;45.014;39.006;2022-12-07T12:10:58;16.65;;;7.63;;
61635;SDS011;59438;45.014;39.006;2022-12-07T12:13:34;15.95;;;9.05;;
61635;SDS011;59438;45.014;39.006;2022-12-07T12:16:47;16.30;;;6.57;;
61635;SDS011;59438;45.014;39.006;2022-12-07T12:19:29;14.88;;;8.25;;
61635;SDS011;59438;45.014;39.006;2022-12-07T12:22:02;16.38;;;7.45;;
61635;SDS011;59438;45.014;39.006;2022-12-07T12:24:37;14.10;;;7.75;;
61635;SDS011;59438;45.014;39.006;2022-12-07T12:27:06;27.67;;;14.35;;
61635;SDS011;59438;45.014;39.006;2022-12-07T12:29:36;12.02;;;6.38;;
61635;SDS011;59438;45.014;39.006;2022-12-07T12:32:06;25.52;;;11.30;;
61635;SDS011;59438;45.014;39.006;2022-12-07T12:34:39;25.60;;;13.52;;
61635;SDS011;59438;45.014;39.006;2022-12-07T12:37:41;17.10;;;7.75;;
61635;SDS011;59438;45.014;39.006;2022-12-07T12:46:44;13.38;;;7.88;;
61635;SDS011;59438;45.014;39.006;2022-12-07T12:49:33;34.15;;;14.77;;
61635;SDS011;59438;45.014;39.006;2022-12-07T12:55:12;26.45;;;13.13;;
61635;SDS011;59438;45.014;39.006;2022-12-07T12:57:41;24.05;;;10.70;;
61635;SDS011;59438;45.014;39.006;2022-12-07T13:00:15;25.52;;;11.52;;
61635;SDS011;59438;45.014;39.006;2022-12-07T13:02:48;30.30;;;14.93;;
61635;SDS011;59438;45.014;39.006;2022-12-07T13:05:17;28.63;;;12.25;;
61635;SDS011;59438;45.014;39.006;2022-12-07T13:07:59;112.45;;;35.05;;
61635;SDS011;59438;45.014;39.006;2022-12-07T13:19:21;41.65;;;13.95;;
61635;SDS011;59438;45.014;39.006;2022-12-07T13:25:07;42.95;;;15.95;;
61635;SDS011;59438;45.014;39.006;2022-12-07T13:30:06;22.67;;;8.80;;
61635;SDS011;59438;45.014;39.006;2022-12-07T13:32:39;29.45;;;13.02;;
61635;SDS011;59438;45.014;39.006;2022-12-07T13:38:02;33.70;;;13.32;;
61635;SDS011;59438;45.014;39.006;2022-12-07T13:40:31;43.40;;;18.33;;
61635;SDS011;59438;45.014;39.006;2022-12-07T13:42:58;36.38;;;14.18;;
61635;SDS011;59438;45.014;39.006;2022-12-07T13:45:26;32.65;;;14.82;;
61635;SDS011;59438;45.014;39.006;2022-12-07T13:47:54;71.68;;;30.65;;
61635;SDS011;59438;45.014;39.006;2022-12-07T13:50:26;105.68;;;65.25;;
61635;SDS011;59438;45.014;39.006;2022-12-07T13:52:56;52.60;;;25.02;;
61635;SDS011;59438;45.014;39.006;2022-12-07T13:55:23;42.35;;;14.27;;
61635;SDS011;59438;45.014;39.006;2022-12-07T13:57:51;52.67;;;20.77;;
61635;SDS011;59438;45.014;39.006;2022-12-07T14:00:19;39.15;;;17.40;;
61635;SDS011;59438;45.014;39.006;2022-12-07T14:02:54;37.67;;;16.40;;
61635;SDS011;59438;45.014;39.006;2022-12-07T14:05:23;30.92;;;13.82;;
61635;SDS011;59438;45.014;39.006;2022-12-07T14:07:53;32.53;;;16.42;;
61635;SDS011;59438;45.014;39.006;2022-12-07T14:10:23;35.53;;;13.88;;
61635;SDS011;59438;45.014;39.006;2022-12-07T14:12:51;32.85;;;14.05;;
61635;SDS011;59438;45.014;39.006;2022-12-07T14:15:19;23.83;;;11.23;;
61635;SDS011;59438;45.014;39.006;2022-12-07T14:17:51;29.40;;;17.35;;
61635;SDS011;59438;45.014;39.006;2022-12-07T14:20:31;25.30;;;11.55;;
61635;SDS011;59438;45.014;39.006;2022-12-07T14:23:00;26.55;;;14.23;;
61635;SDS011;59438;45.014;39.006;2022-12-07T14:25:26;40.30;;;22.20;;
61635;SDS011;59438;45.014;39.006;2022-12-07T14:27:54;28.85;;;16.65;;
61635;SDS011;59438;45.014;39.006;2022-12-07T14:30:22;24.02;;;10.52;;
61635;SDS011;59438;45.014;39.006;2022-12-07T14:32:52;19.83;;;8.27;;
61635;SDS011;59438;45.014;39.006;2022-12-07T14:35:20;21.02;;;8.35;;
61635;SDS011;59438;45.014;39.006;2022-12-07T14:37:47;17.85;;;8.43;;
61635;SDS011;59438;45.014;39.006;2022-12-07T14:40:16;17.50;;;8.73;;
61635;SDS011;59438;45.014;39.006;2022-12-07T14:42:44;17.40;;;8.00;;
61635;SDS011;59438;45.014;39.006;2022-12-07T14:45:15;22.52;;;8.45;;
61635;SDS011;59438;45.014;39.006;2022-12-07T14:47:43;22.10;;;8.98;;
61635;SDS011;59438;45.014;39.006;2022-12-07T14:50:11;22.60;;;9.25;;
61635;SDS011;59438;45.014;39.006;2022-12-07T14:52:39;27.30;;;11.10;;
61635;SDS011;59438;45.014;39.006;2022-12-07T14:55:07;15.80;;;8.43;;
61635;SDS011;59438;45.014;39.006;2022-12-07T14:57:41;23.92;;;9.50;;
61635;SDS011;59438;45.014;39.006;2022-12-07T15:00:08;18.35;;;7.40;;
61635;SDS011;59438;45.014;39.006;2022-12-07T15:02:39;13.60;;;7.40;;
61635;SDS011;59438;45.014;39.006;2022-12-07T15:05:06;20.67;;;8.13;;
61635;SDS011;59438;45.014;39.006;2022-12-07T15:07:32;15.52;;;7.80;;
61635;SDS011;59438;45.014;39.006;2022-12-07T15:09:59;17.65;;;7.35;;
61635;SDS011;59438;45.014;39.006;2022-12-07T15:12:25;18.85;;;8.15;;
61635;SDS011;59438;45.014;39.006;2022-12-07T15:14:53;19.75;;;7.95;;
61635;SDS011;59438;45.014;39.006;2022-12-07T15:17:20;16.92;;;8.02;;